sensor_id;sensor_type;location;lat;lon;timestamp;P1;durP1;ratioP1;P2;durP2;ratioP2
29002;SDS011;16102;57.138;-2.118;2023-03-30T00:00:56;24.45;;;5.13;;
29002;SDS011;16102;57.138;-2.118;2023-03-30T00:03:23;17.30;;;4.60;;
29002;SDS011;16102;57.138;-2.118;2023-03-30T00:05:53;17.27;;;4.18;;
29002;SDS011;16102;57.138;-2.118;2023-03-30T00:08:24;9.15;;;3.30;;
29002;SDS011;16102;57.138;-2.118;2023-03-30T00:10:59;9.52;;;3.72;;
29002;SDS011;16102;57.138;-2.118;2023-03-30T00:13:32;20.42;;;4.88;;
29002;SDS011;16102;57.138;-2.118;2023-03-30T00:15:59;26.33;;;6.32;;
29002;SDS011;16102;57.138;-2.118;2023-03-30T00:18:27;6.55;;;3.40;;
29002;SDS011;16102;57.138;-2.118;2023-03-30T00:20:57;7.47;;;2.83;;
29002;SDS011;16102;57.138;-2.118;2023-03-30T00:23:24;9.77;;;3.30;;
29002;SDS011;16102;57.138;-2.118;2023-03-30T00:25:52;12.00;;;3.72;;
29002;SDS011;16102;57.138;-2.118;2023-03-30T00:28:19;15.13;;;3.25;;
29002;SDS011;16102;57.138;-2.118;2023-03-30T00:30:47;9.30;;;2.88;;
29002;SDS011;16102;57.138;-2.118;2023-03-30T00:33:14;19.80;;;4.55;;
29002;SDS011;16102;57.138;-2.118;2023-03-30T00:35:41;8.30;;;2.60;;
29002;SDS011;16102;57.138;-2.118;2023-03-30T00:38:08;20.98;;;4.25;;
29002;SDS011;16102;57.138;-2.118;2023-03-30T00:40:35;6.07;;;2.58;;
29002;SDS011;16102;57.138;-2.118;2023-03-30T00:43:04;3.72;;;1.83;;
29002;SDS011;16102;57.138;-2.118;2023-03-30T00:45:33;4.95;;;1.85;;
29002;SDS011;16102;57.138;-2.118;2023-03-30T00:48:06;6.32;;;3.80;;
29002;SDS011;16102;57.138;-2.118;2023-03-30T00:53:26;8.52;;;2.95;;
29002;SDS011;16102;57.138;-2.118;2023-03-30T00:55:56;3.60;;;1.67;;
29002;SDS011;16102;57.138;-2.118;2023-03-30T00:58:24;12.93;;;3.78;;
29002;SDS011;16102;57.138;-2.118;2023-03-30T01:00:53;20.67;;;3.53;;
29002;SDS011;16102;57.138;-2.118;2023-03-30T01:03:27;7.78;;;2.92;;
29002;SDS011;16102;57.138;-2.118;2023-03-30T01:06:04;5.10;;;2.72;;
29002;SDS011;16102;57.138;-2.118;2023-03-30T01:08:35;6.95;;;1.73;;
29002;SDS011;16102;57.138;-2.118;2023-03-30T01:11:04;7.38;;;2.58;;
29002;SDS011;16102;57.138;-2.118;2023-03-30T01:13:36;9.00;;;2.60;;
29002;SDS011;16102;57.138;-2.118;2023-03-30T01:22:11;18.20;;;3.88;;
29002;SDS011;16102;57.138;-2.118;2023-03-30T01:33:01;10.07;;;2.67;;
29002;SDS011;16102;57.138;-2.118;2023-03-30T01:41:25;22.52;;;5.18;;
29002;SDS011;16102;57.138;-2.118;2023-03-30T01:46:56;11.63;;;2.67;;
29002;SDS011;16102;57.138;-2.118;2023-03-30T01:49:40;19.98;;;4.82;;
29002;SDS011;16102;57.138;-2.118;2023-03-30T01:54:48;10.57;;;3.60;;
29002;SDS011;16102;57.138;-2.118;2023-03-30T02:00:04;16.25;;;3.33;;
29002;SDS011;16102;57.138;-2.118;2023-03-30T02:02:44;10.40;;;3.30;;
29002;SDS011;16102;57.138;-2.118;2023-03-30T02:05:22;7.15;;;2.63;;
29002;SDS011;16102;57.138;-2.118;2023-03-30T02:07:54;7.03;;;2.15;;
29002;SDS011;16102;57.138;-2.118;2023-03-30T02:10:26;6.75;;;1.88;;
29002;SDS011;16102;57.138;-2.118;2023-03-30T02:12:56;4.47;;;1.90;;
29002;SDS011;16102;57.138;-2.118;2023-03-30T02:15:25;5.47;;;1.52;;
29002;SDS011;16102;57.138;-2.118;2023-03-30T02:17:58;5.05;;;1.73;;
29002;SDS011;16102;57.138;-2.118;2023-03-30T02:20:25;7.53;;;2.55;;
29002;SDS011;16102;57.138;-2.118;2023-03-30T02:22:54;2.17;;;1.33;;
29002;SDS011;16102;57.138;-2.118;2023-03-30T02:25:22;3.30;;;1.30;;
29002;SDS011;16102;57.138;-2.118;2023-03-30T02:27:49;4.03;;;1.42;;
29002;SDS011;16102;57.138;-2.118;2023-03-30T02:30:18;5.15;;;1.60;;
29002;SDS011;16102;57.138;-2.118;2023-03-30T02:32:48;2.30;;;1.02;;
29002;SDS011;16102;57.138;-2.118;2023-03-30T02:38:22;3.78;;;0.95;;
29002;SDS011;16102;57.138;-2.118;2023-03-30T02:49:12;14.52;;;3.13;;
29002;SDS011;16102;57.138;-2.118;2023-03-30T03:00:04;8.57;;;1.50;;
29002;SDS011;16102;57.138;-2.118;2023-03-30T03:02:39;7.70;;;2.22;;
29002;SDS011;16102;57.138;-2.118;2023-03-30T03:05:10;3.47;;;1.38;;
29002;SDS011;16102;57.138;-2.118;2023-03-30T03:07:38;6.40;;;2.10;;
29002;SDS011;16102;57.138;-2.118;2023-03-30T03:10:06;9.43;;;2.05;;
29002;SDS011;16102;57.138;-2.118;2023-03-30T03:12:34;9.57;;;2.38;;
29002;SDS011;16102;57.138;-2.118;2023-03-30T03:15:01;4.68;;;1.35;;
29002;SDS011;16102;57.138;-2.118;2023-03-30T03:17:30;7.15;;;2.42;;
29002;SDS011;16102;57.138;-2.118;2023-03-30T03:20:00;9.90;;;2.35;;
29002;SDS011;16102;57.138;-2.118;2023-03-30T03:22:29;4.18;;;1.42;;
29002;SDS011;16102;57.138;-2.118;2023-03-30T03:24:56;3.67;;;1.40;;
29002;SDS011;16102;57.138;-2.118;2023-03-30T03:27:23;6.32;;;2.00;;
29002;SDS011;16102;57.138;-2.118;2023-03-30T03:29:50;6.47;;;1.65;;
29002;SDS011;16102;57.138;-2.118;2023-03-30T03:32:17;3.75;;;1.52;;
29002;SDS011;16102;57.138;-2.118;2023-03-30T03:34:44;5.13;;;1.55;;
29002;SDS011;16102;57.138;-2.118;2023-03-30T03:37:11;9.05;;;2.50;;
29002;SDS011;16102;57.138;-2.118;2023-03-30T03:39:38;10.68;;;2.30;;
29002;SDS011;16102;57.138;-2.118;2023-03-30T03:42:06;2.63;;;1.02;;
29002;SDS011;16102;57.138;-2.118;2023-03-30T03:44:33;2.13;;;0.90;;
29002;SDS011;16102;57.138;-2.118;2023-03-30T03:47:02;5.55;;;1.10;;
29002;SDS011;16102;57.138;-2.118;2023-03-30T03:49:29;7.63;;;1.58;;
29002;SDS011;16102;57.138;-2.118;2023-03-30T03:51:56;2.97;;;0.85;;
29002;SDS011;16102;57.138;-2.118;2023-03-30T03:54:23;7.05;;;2.00;;
29002;SDS011;16102;57.138;-2.118;2023-03-30T03:56:50;3.13;;;1.20;;
29002;SDS011;16102;57.138;-2.118;2023-03-30T03:59:17;1.92;;;0.93;;
29002;SDS011;16102;57.138;-2.118;2023-03-30T04:01:44;4.05;;;1.38;;
29002;SDS011;16102;57.138;-2.118;2023-03-30T04:04:12;6.22;;;1.63;;
29002;SDS011;16102;57.138;-2.118;2023-03-30T04:06:39;5.97;;;1.63;;
29002;SDS011;16102;57.138;-2.118;2023-03-30T04:09:05;4.20;;;2.17;;
29002;SDS011;16102;57.138;-2.118;2023-03-30T04:11:32;4.13;;;1.10;;
29002;SDS011;16102;57.138;-2.118;2023-03-30T04:13:59;5.65;;;1.45;;
29002;SDS011;16102;57.138;-2.118;2023-03-30T04:16:26;6.63;;;1.67;;
29002;SDS011;16102;57.138;-2.118;2023-03-30T04:18:54;10.73;;;2.20;;
29002;SDS011;16102;57.138;-2.118;2023-03-30T04:21:22;7.32;;;1.25;;
29002;SDS011;16102;57.138;-2.118;2023-03-30T04:23:50;2.20;;;0.90;;
29002;SDS011;16102;57.138;-2.118;2023-03-30T04:26:17;3.47;;;0.73;;
29002;SDS011;16102;57.138;-2.118;2023-03-30T04:28:44;4.80;;;1.45;;
29002;SDS011;16102;57.138;-2.118;2023-03-30T04:31:12;3.05;;;0.98;;
29002;SDS011;16102;57.138;-2.118;2023-03-30T04:33:39;2.75;;;0.70;;
29002;SDS011;16102;57.138;-2.118;2023-03-30T04:36:17;2.30;;;0.82;;
29002;SDS011;16102;57.138;-2.118;2023-03-30T04:38:46;6.15;;;1.30;;
29002;SDS011;16102;57.138;-2.118;2023-03-30T04:41:32;5.22;;;1.35;;
29002;SDS011;16102;57.138;-2.118;2023-03-30T04:44:00;2.65;;;1.10;;
29002;SDS011;16102;57.138;-2.118;2023-03-30T04:46:28;2.78;;;0.80;;
29002;SDS011;16102;57.138;-2.118;2023-03-30T04:48:55;3.30;;;1.85;;
29002;SDS011;16102;57.138;-2.118;2023-03-30T04:51:22;5.57;;;1.60;;
29002;SDS011;16102;57.138;-2.118;2023-03-30T04:53:50;3.50;;;0.98;;
29002;SDS011;16102;57.138;-2.118;2023-03-30T04:56:16;2.85;;;0.88;;
29002;SDS011;16102;57.138;-2.118;2023-03-30T04:58:43;1.95;;;0.75;;
29002;SDS011;16102;57.138;-2.118;2023-03-30T05:01:11;2.58;;;0.75;;
29002;SDS011;16102;57.138;-2.118;2023-03-30T05:03:38;4.15;;;1.17;;
29002;SDS011;16102;57.138;-2.118;2023-03-30T05:06:05;1.08;;;0.50;;
29002;SDS011;16102;57.138;-2.118;2023-03-30T05:08:33;3.05;;;1.10;;
29002;SDS011;16102;57.138;-2.118;2023-03-30T05:11:00;2.55;;;0.77;;
29002;SDS011;16102;57.138;-2.118;2023-03-30T05:13:30;2.03;;;0.70;;
29002;SDS011;16102;57.138;-2.118;2023-03-30T05:15:57;1.13;;;0.57;;
29002;SDS011;16102;57.138;-2.118;2023-03-30T05:18:24;4.18;;;0.70;;
29002;SDS011;16102;57.138;-2.118;2023-03-30T05:20:54;6.57;;;1.42;;
29002;SDS011;16102;57.138;-2.118;2023-03-30T05:23:22;4.43;;;1.15;;
29002;SDS011;16102;57.138;-2.118;2023-03-30T05:25:50;3.88;;;1.00;;
29002;SDS011;16102;57.138;-2.118;2023-03-30T05:28:17;3.55;;;0.80;;
29002;SDS011;16102;57.138;-2.118;2023-03-30T05:30:45;4.63;;;0.85;;
29002;SDS011;16102;57.138;-2.118;2023-03-30T05:33:12;6.25;;;1.00;;
29002;SDS011;16102;57.138;-2.118;2023-03-30T05:35:39;7.22;;;1.80;;
29002;SDS011;16102;57.138;-2.118;2023-03-30T05:38:06;2.83;;;1.20;;
29002;SDS011;16102;57.138;-2.118;2023-03-30T05:40:33;5.85;;;1.13;;
29002;SDS011;16102;57.138;-2.118;2023-03-30T05:43:00;6.18;;;1.55;;
29002;SDS011;16102;57.138;-2.118;2023-03-30T05:45:28;3.05;;;0.95;;
29002;SDS011;16102;57.138;-2.118;2023-03-30T05:47:55;7.53;;;1.33;;
29002;SDS011;16102;57.138;-2.118;2023-03-30T05:50:21;7.80;;;1.25;;
29002;SDS011;16102;57.138;-2.118;2023-03-30T05:52:48;3.33;;;1.05;;
29002;SDS011;16102;57.138;-2.118;2023-03-30T05:55:16;4.00;;;1.05;;
29002;SDS011;16102;57.138;-2.118;2023-03-30T05:57:43;2.00;;;0.90;;
29002;SDS011;16102;57.138;-2.118;2023-03-30T06:00:11;6.07;;;0.93;;
29002;SDS011;16102;57.138;-2.118;2023-03-30T06:02:40;2.90;;;0.90;;
29002;SDS011;16102;57.138;-2.118;2023-03-30T06:05:07;1.23;;;0.88;;
29002;SDS011;16102;57.138;-2.118;2023-03-30T06:07:35;2.70;;;1.10;;
29002;SDS011;16102;57.138;-2.118;2023-03-30T06:10:04;1.17;;;0.70;;
29002;SDS011;16102;57.138;-2.118;2023-03-30T06:12:32;2.67;;;1.20;;
29002;SDS011;16102;57.138;-2.118;2023-03-30T06:14:59;1.95;;;1.17;;
29002;SDS011;16102;57.138;-2.118;2023-03-30T06:17:28;4.05;;;0.98;;
29002;SDS011;16102;57.138;-2.118;2023-03-30T06:19:55;5.65;;;2.10;;
29002;SDS011;16102;57.138;-2.118;2023-03-30T06:22:22;3.22;;;1.23;;
29002;SDS011;16102;57.138;-2.118;2023-03-30T06:24:50;4.93;;;2.20;;
29002;SDS011;16102;57.138;-2.118;2023-03-30T06:27:17;1.25;;;0.90;;
29002;SDS011;16102;57.138;-2.118;2023-03-30T06:29:43;5.93;;;2.58;;
29002;SDS011;16102;57.138;-2.118;2023-03-30T06:32:10;3.47;;;1.50;;
29002;SDS011;16102;57.138;-2.118;2023-03-30T06:34:37;4.80;;;1.23;;
29002;SDS011;16102;57.138;-2.118;2023-03-30T06:37:05;3.97;;;1.67;;
29002;SDS011;16102;57.138;-2.118;2023-03-30T06:39:34;3.60;;;1.30;;
29002;SDS011;16102;57.138;-2.118;2023-03-30T06:42:03;3.75;;;1.60;;
29002;SDS011;16102;57.138;-2.118;2023-03-30T06:44:31;5.10;;;2.47;;
29002;SDS011;16102;57.138;-2.118;2023-03-30T06:47:01;3.58;;;1.13;;
29002;SDS011;16102;57.138;-2.118;2023-03-30T06:49:28;2.03;;;0.98;;
29002;SDS011;16102;57.138;-2.118;2023-03-30T06:51:56;3.40;;;1.40;;
29002;SDS011;16102;57.138;-2.118;2023-03-30T06:54:25;2.92;;;0.63;;
29002;SDS011;16102;57.138;-2.118;2023-03-30T06:56:52;3.53;;;1.23;;
29002;SDS011;16102;57.138;-2.118;2023-03-30T06:59:18;2.28;;;1.30;;
29002;SDS011;16102;57.138;-2.118;2023-03-30T07:01:45;5.30;;;1.40;;
29002;SDS011;16102;57.138;-2.118;2023-03-30T07:04:13;4.75;;;2.33;;
29002;SDS011;16102;57.138;-2.118;2023-03-30T07:06:50;2.10;;;1.17;;
29002;SDS011;16102;57.138;-2.118;2023-03-30T07:09:17;6.90;;;2.00;;
29002;SDS011;16102;57.138;-2.118;2023-03-30T07:11:44;1.27;;;1.00;;
29002;SDS011;16102;57.138;-2.118;2023-03-30T07:14:11;3.33;;;1.50;;
29002;SDS011;16102;57.138;-2.118;2023-03-30T07:16:39;4.97;;;1.73;;
29002;SDS011;16102;57.138;-2.118;2023-03-30T07:19:06;2.40;;;1.08;;
29002;SDS011;16102;57.138;-2.118;2023-03-30T07:21:34;3.10;;;1.00;;
29002;SDS011;16102;57.138;-2.118;2023-03-30T07:24:01;1.38;;;0.65;;
29002;SDS011;16102;57.138;-2.118;2023-03-30T07:26:28;2.17;;;1.02;;
29002;SDS011;16102;57.138;-2.118;2023-03-30T07:28:56;2.10;;;1.02;;
29002;SDS011;16102;57.138;-2.118;2023-03-30T07:31:24;2.58;;;0.90;;
29002;SDS011;16102;57.138;-2.118;2023-03-30T07:33:51;5.97;;;1.05;;
29002;SDS011;16102;57.138;-2.118;2023-03-30T07:36:18;7.97;;;3.55;;
29002;SDS011;16102;57.138;-2.118;2023-03-30T07:38:45;9.75;;;3.53;;
29002;SDS011;16102;57.138;-2.118;2023-03-30T07:41:13;3.42;;;2.17;;
29002;SDS011;16102;57.138;-2.118;2023-03-30T07:43:41;6.35;;;3.58;;
29002;SDS011;16102;57.138;-2.118;2023-03-30T07:46:08;4.80;;;3.03;;
29002;SDS011;16102;57.138;-2.118;2023-03-30T07:48:39;2.60;;;1.92;;
29002;SDS011;16102;57.138;-2.118;2023-03-30T07:51:07;2.55;;;1.20;;
29002;SDS011;16102;57.138;-2.118;2023-03-30T07:53:36;1.88;;;1.33;;
29002;SDS011;16102;57.138;-2.118;2023-03-30T07:56:03;5.28;;;1.60;;
29002;SDS011;16102;57.138;-2.118;2023-03-30T07:58:31;5.80;;;2.50;;
29002;SDS011;16102;57.138;-2.118;2023-03-30T08:00:58;7.55;;;2.58;;
29002;SDS011;16102;57.138;-2.118;2023-03-30T08:03:28;1.35;;;1.10;;
29002;SDS011;16102;57.138;-2.118;2023-03-30T08:05:59;2.58;;;1.30;;
29002;SDS011;16102;57.138;-2.118;2023-03-30T08:08:31;6.68;;;2.72;;
29002;SDS011;16102;57.138;-2.118;2023-03-30T08:10:59;1.42;;;0.95;;
29002;SDS011;16102;57.138;-2.118;2023-03-30T08:13:26;1.42;;;1.05;;
29002;SDS011;16102;57.138;-2.118;2023-03-30T08:15:53;1.15;;;0.68;;
29002;SDS011;16102;57.138;-2.118;2023-03-30T08:18:20;8.35;;;1.85;;
29002;SDS011;16102;57.138;-2.118;2023-03-30T08:20:51;3.25;;;0.95;;
29002;SDS011;16102;57.138;-2.118;2023-03-30T08:23:20;2.80;;;1.80;;
29002;SDS011;16102;57.138;-2.118;2023-03-30T08:25:47;3.05;;;1.13;;
29002;SDS011;16102;57.138;-2.118;2023-03-30T08:28:20;2.60;;;1.02;;
29002;SDS011;16102;57.138;-2.118;2023-03-30T08:30:47;2.53;;;0.77;;
29002;SDS011;16102;57.138;-2.118;2023-03-30T08:33:15;3.35;;;0.52;;
29002;SDS011;16102;57.138;-2.118;2023-03-30T08:35:48;1.05;;;0.60;;
29002;SDS011;16102;57.138;-2.118;2023-03-30T08:38:16;2.28;;;0.75;;
29002;SDS011;16102;57.138;-2.118;2023-03-30T08:40:44;5.32;;;2.17;;
29002;SDS011;16102;57.138;-2.118;2023-03-30T08:46:02;1.88;;;0.95;;
29002;SDS011;16102;57.138;-2.118;2023-03-30T08:48:31;4.22;;;1.40;;
29002;SDS011;16102;57.138;-2.118;2023-03-30T08:51:05;8.10;;;1.20;;
29002;SDS011;16102;57.138;-2.118;2023-03-30T08:53:40;1.90;;;0.68;;
29002;SDS011;16102;57.138;-2.118;2023-03-30T08:58:43;3.85;;;1.00;;
29002;SDS011;16102;57.138;-2.118;2023-03-30T09:06:55;1.45;;;0.75;;
29002;SDS011;16102;57.138;-2.118;2023-03-30T09:09:29;3.53;;;1.40;;
29002;SDS011;16102;57.138;-2.118;2023-03-30T09:12:06;5.63;;;2.50;;
29002;SDS011;16102;57.138;-2.118;2023-03-30T09:14:40;5.40;;;1.90;;
29002;SDS011;16102;57.138;-2.118;2023-03-30T09:17:13;2.58;;;1.13;;
29002;SDS011;16102;57.138;-2.118;2023-03-30T09:19:54;2.53;;;1.17;;
29002;SDS011;16102;57.138;-2.118;2023-03-30T09:24:54;1.25;;;0.60;;
29002;SDS011;16102;57.138;-2.118;2023-03-30T09:27:23;1.35;;;0.75;;
29002;SDS011;16102;57.138;-2.118;2023-03-30T09:30:02;2.60;;;0.80;;
29002;SDS011;16102;57.138;-2.118;2023-03-30T09:32:48;2.55;;;0.43;;
29002;SDS011;16102;57.138;-2.118;2023-03-30T09:35:33;1.20;;;0.43;;
29002;SDS011;16102;57.138;-2.118;2023-03-30T09:38:10;3.75;;;1.08;;
29002;SDS011;16102;57.138;-2.118;2023-03-30T09:46:00;4.78;;;1.13;;
29002;SDS011;16102;57.138;-2.118;2023-03-30T09:48:36;0.93;;;0.80;;
29002;SDS011;16102;57.138;-2.118;2023-03-30T09:53:57;3.47;;;1.08;;
29002;SDS011;16102;57.138;-2.118;2023-03-30T10:02:07;2.15;;;0.47;;
29002;SDS011;16102;57.138;-2.118;2023-03-30T10:07:35;2.05;;;0.50;;
29002;SDS011;16102;57.138;-2.118;2023-03-30T10:12:41;2.20;;;0.80;;
29002;SDS011;16102;57.138;-2.118;2023-03-30T10:15:14;2.38;;;0.75;;
29002;SDS011;16102;57.138;-2.118;2023-03-30T10:17:47;2.40;;;0.63;;
29002;SDS011;16102;57.138;-2.118;2023-03-30T10:20:27;2.38;;;0.70;;
29002;SDS011;16102;57.138;-2.118;2023-03-30T10:23:05;2.67;;;0.70;;
29002;SDS011;16102;57.138;-2.118;2023-03-30T10:25:45;1.00;;;0.50;;
29002;SDS011;16102;57.138;-2.118;2023-03-30T10:28:19;0.38;;;0.30;;
29002;SDS011;16102;57.138;-2.118;2023-03-30T10:30:53;2.00;;;0.50;;
29002;SDS011;16102;57.138;-2.118;2023-03-30T10:33:25;2.10;;;0.52;;
29002;SDS011;16102;57.138;-2.118;2023-03-30T10:35:53;2.33;;;0.50;;
29002;SDS011;16102;57.138;-2.118;2023-03-30T10:38:22;2.00;;;0.77;;
29002;SDS011;16102;57.138;-2.118;2023-03-30T10:40:51;2.53;;;0.93;;
29002;SDS011;16102;57.138;-2.118;2023-03-30T10:43:30;2.45;;;0.82;;
29002;SDS011;16102;57.138;-2.118;2023-03-30T10:46:05;1.83;;;0.40;;
29002;SDS011;16102;57.138;-2.118;2023-03-30T10:54:29;4.10;;;0.90;;
29002;SDS011;16102;57.138;-2.118;2023-03-30T10:57:02;2.17;;;0.90;;
29002;SDS011;16102;57.138;-2.118;2023-03-30T10:59:48;6.22;;;1.50;;
29002;SDS011;16102;57.138;-2.118;2023-03-30T11:05:06;4.45;;;1.50;;
29002;SDS011;16102;57.138;-2.118;2023-03-30T11:08:34;3.55;;;1.17;;
29002;SDS011;16102;57.138;-2.118;2023-03-30T11:10:41;5.38;;;1.42;;
29002;SDS011;16102;57.138;-2.118;2023-03-30T11:13:16;3.75;;;1.15;;
29002;SDS011;16102;57.138;-2.118;2023-03-30T11:20:55;5.40;;;1.75;;
29002;SDS011;16102;57.138;-2.118;2023-03-30T11:23:48;2.47;;;0.88;;
29002;SDS011;16102;57.138;-2.118;2023-03-30T11:29:23;4.57;;;1.17;;
29002;SDS011;16102;57.138;-2.118;2023-03-30T11:35:14;1.88;;;0.35;;
29002;SDS011;16102;57.138;-2.118;2023-03-30T11:37:57;1.85;;;0.30;;
29002;SDS011;16102;57.138;-2.118;2023-03-30T11:40:36;1.67;;;0.52;;
29002;SDS011;16102;57.138;-2.118;2023-03-30T11:43:06;1.30;;;0.43;;
29002;SDS011;16102;57.138;-2.118;2023-03-30T11:45:47;2.40;;;0.80;;
29002;SDS011;16102;57.138;-2.118;2023-03-30T11:48:40;1.25;;;0.60;;
29002;SDS011;16102;57.138;-2.118;2023-03-30T11:57:32;1.58;;;0.52;;
29002;SDS011;16102;57.138;-2.118;2023-03-30T12:05:54;4.70;;;1.13;;
29002;SDS011;16102;57.138;-2.118;2023-03-30T12:11:04;2.58;;;0.90;;
29002;SDS011;16102;57.138;-2.118;2023-03-30T12:13:38;2.78;;;1.10;;
29002;SDS011;16102;57.138;-2.118;2023-03-30T12:16:17;5.00;;;1.13;;
29002;SDS011;16102;57.138;-2.118;2023-03-30T12:19:01;2.38;;;0.63;;
29002;SDS011;16102;57.138;-2.118;2023-03-30T12:21:32;1.75;;;0.30;;
29002;SDS011;16102;57.138;-2.118;2023-03-30T12:24:15;0.90;;;0.40;;
29002;SDS011;16102;57.138;-2.118;2023-03-30T12:26:57;2.05;;;0.40;;
29002;SDS011;16102;57.138;-2.118;2023-03-30T12:29:45;3.00;;;0.90;;
29002;SDS011;16102;57.138;-2.118;2023-03-30T12:32:28;1.77;;;0.50;;
29002;SDS011;16102;57.138;-2.118;2023-03-30T12:34:56;2.17;;;0.55;;
29002;SDS011;16102;57.138;-2.118;2023-03-30T12:37:33;0.93;;;0.40;;
29002;SDS011;16102;57.138;-2.118;2023-03-30T12:40:04;0.93;;;0.60;;
29002;SDS011;16102;57.138;-2.118;2023-03-30T12:43:29;1.52;;;0.50;;
29002;SDS011;16102;57.138;-2.118;2023-03-30T12:45:51;5.45;;;1.08;;
29002;SDS011;16102;57.138;-2.118;2023-03-30T12:51:27;2.05;;;0.75;;
29002;SDS011;16102;57.138;-2.118;2023-03-30T12:54:37;2.78;;;0.95;;
29002;SDS011;16102;57.138;-2.118;2023-03-30T12:57:32;3.95;;;0.77;;
29002;SDS011;16102;57.138;-2.118;2023-03-30T13:02:45;4.22;;;1.25;;
29002;SDS011;16102;57.138;-2.118;2023-03-30T13:05:30;3.65;;;1.38;;
29002;SDS011;16102;57.138;-2.118;2023-03-30T13:08:08;3.53;;;1.15;;
29002;SDS011;16102;57.138;-2.118;2023-03-30T13:10:44;4.32;;;2.03;;
29002;SDS011;16102;57.138;-2.118;2023-03-30T13:13:22;6.38;;;1.67;;
29002;SDS011;16102;57.138;-2.118;2023-03-30T13:16:09;10.48;;;2.65;;
29002;SDS011;16102;57.138;-2.118;2023-03-30T13:18:50;11.77;;;3.13;;
29002;SDS011;16102;57.138;-2.118;2023-03-30T13:21:23;10.90;;;2.60;;
29002;SDS011;16102;57.138;-2.118;2023-03-30T13:23:59;5.38;;;1.90;;
29002;SDS011;16102;57.138;-2.118;2023-03-30T13:26:47;10.63;;;3.03;;
29002;SDS011;16102;57.138;-2.118;2023-03-30T13:29:15;7.95;;;2.15;;
29002;SDS011;16102;57.138;-2.118;2023-03-30T13:40:16;4.97;;;1.73;;
29002;SDS011;16102;57.138;-2.118;2023-03-30T13:49:08;5.65;;;2.05;;
29002;SDS011;16102;57.138;-2.118;2023-03-30T13:51:40;6.93;;;2.63;;
29002;SDS011;16102;57.138;-2.118;2023-03-30T13:54:21;6.65;;;1.85;;
29002;SDS011;16102;57.138;-2.118;2023-03-30T13:59:46;5.53;;;1.58;;
29002;SDS011;16102;57.138;-2.118;2023-03-30T14:02:23;10.15;;;0.85;;
29002;SDS011;16102;57.138;-2.118;2023-03-30T14:04:54;1.77;;;0.50;;
29002;SDS011;16102;57.138;-2.118;2023-03-30T14:07:47;1.30;;;0.20;;
29002;SDS011;16102;57.138;-2.118;2023-03-30T14:10:16;0.98;;;0.38;;
29002;SDS011;16102;57.138;-2.118;2023-03-30T14:12:51;2.00;;;0.63;;
29002;SDS011;16102;57.138;-2.118;2023-03-30T14:15:27;2.40;;;0.82;;
29002;SDS011;16102;57.138;-2.118;2023-03-30T14:18:00;1.52;;;0.40;;
29002;SDS011;16102;57.138;-2.118;2023-03-30T14:23:04;1.15;;;0.45;;
29002;SDS011;16102;57.138;-2.118;2023-03-30T14:25:34;0.85;;;0.30;;
29002;SDS011;16102;57.138;-2.118;2023-03-30T14:28:06;1.55;;;0.32;;
29002;SDS011;16102;57.138;-2.118;2023-03-30T14:30:54;2.60;;;0.75;;
29002;SDS011;16102;57.138;-2.118;2023-03-30T14:33:23;1.10;;;0.38;;
29002;SDS011;16102;57.138;-2.118;2023-03-30T14:35:52;0.80;;;0.38;;
29002;SDS011;16102;57.138;-2.118;2023-03-30T14:38:25;2.20;;;0.30;;
29002;SDS011;16102;57.138;-2.118;2023-03-30T14:41:00;0.40;;;0.20;;
29002;SDS011;16102;57.138;-2.118;2023-03-30T14:43:30;0.50;;;0.20;;
29002;SDS011;16102;57.138;-2.118;2023-03-30T14:45:57;1.23;;;0.45;;
29002;SDS011;16102;57.138;-2.118;2023-03-30T14:48:42;2.28;;;0.95;;
29002;SDS011;16102;57.138;-2.118;2023-03-30T14:53:50;4.68;;;1.48;;
29002;SDS011;16102;57.138;-2.118;2023-03-30T14:56:18;4.97;;;1.23;;
29002;SDS011;16102;57.138;-2.118;2023-03-30T14:58:50;8.85;;;1.40;;
29002;SDS011;16102;57.138;-2.118;2023-03-30T15:01:19;3.90;;;1.20;;
29002;SDS011;16102;57.138;-2.118;2023-03-30T15:04:30;6.63;;;2.45;;
29002;SDS011;16102;57.138;-2.118;2023-03-30T15:06:55;2.72;;;1.42;;
29002;SDS011;16102;57.138;-2.118;2023-03-30T15:09:24;2.80;;;0.77;;
29002;SDS011;16102;57.138;-2.118;2023-03-30T15:12:01;1.88;;;0.57;;
29002;SDS011;16102;57.138;-2.118;2023-03-30T15:14:34;3.40;;;1.00;;
29002;SDS011;16102;57.138;-2.118;2023-03-30T15:17:12;2.92;;;0.80;;
29002;SDS011;16102;57.138;-2.118;2023-03-30T15:19:43;1.60;;;1.00;;
29002;SDS011;16102;57.138;-2.118;2023-03-30T15:22:31;1.27;;;0.60;;
29002;SDS011;16102;57.138;-2.118;2023-03-30T15:25:18;3.78;;;1.05;;
29002;SDS011;16102;57.138;-2.118;2023-03-30T15:27:50;2.35;;;0.65;;
29002;SDS011;16102;57.138;-2.118;2023-03-30T15:30:41;3.63;;;0.95;;
29002;SDS011;16102;57.138;-2.118;2023-03-30T15:33:23;2.95;;;1.15;;
29002;SDS011;16102;57.138;-2.118;2023-03-30T15:36:05;2.72;;;0.70;;
29002;SDS011;16102;57.138;-2.118;2023-03-30T15:38:48;3.30;;;1.05;;
29002;SDS011;16102;57.138;-2.118;2023-03-30T15:41:20;2.70;;;0.77;;
29002;SDS011;16102;57.138;-2.118;2023-03-30T15:43:56;1.50;;;0.52;;
29002;SDS011;16102;57.138;-2.118;2023-03-30T15:46:24;3.05;;;0.93;;
29002;SDS011;16102;57.138;-2.118;2023-03-30T15:48:55;2.42;;;0.90;;
29002;SDS011;16102;57.138;-2.118;2023-03-30T15:53:51;3.78;;;1.00;;
29002;SDS011;16102;57.138;-2.118;2023-03-30T15:56:55;1.35;;;0.70;;
29002;SDS011;16102;57.138;-2.118;2023-03-30T15:59:43;30.92;;;5.88;;
29002;SDS011;16102;57.138;-2.118;2023-03-30T16:05:30;2.78;;;0.70;;
29002;SDS011;16102;57.138;-2.118;2023-03-30T16:08:01;2.47;;;0.75;;
29002;SDS011;16102;57.138;-2.118;2023-03-30T16:10:31;3.65;;;1.02;;
29002;SDS011;16102;57.138;-2.118;2023-03-30T16:12:58;4.05;;;1.42;;
29002;SDS011;16102;57.138;-2.118;2023-03-30T16:15:27;1.38;;;0.57;;
29002;SDS011;16102;57.138;-2.118;2023-03-30T16:17:56;1.20;;;0.50;;
29002;SDS011;16102;57.138;-2.118;2023-03-30T16:20:25;2.40;;;0.60;;
29002;SDS011;16102;57.138;-2.118;2023-03-30T16:22:55;3.13;;;0.82;;
29002;SDS011;16102;57.138;-2.118;2023-03-30T16:25:25;1.40;;;0.60;;
29002;SDS011;16102;57.138;-2.118;2023-03-30T16:28:11;1.42;;;0.60;;
29002;SDS011;16102;57.138;-2.118;2023-03-30T16:30:44;3.72;;;0.82;;
29002;SDS011;16102;57.138;-2.118;2023-03-30T16:33:13;1.60;;;0.60;;
29002;SDS011;16102;57.138;-2.118;2023-03-30T16:35:40;3.25;;;0.90;;
29002;SDS011;16102;57.138;-2.118;2023-03-30T16:38:08;2.40;;;0.90;;
29002;SDS011;16102;57.138;-2.118;2023-03-30T16:40:40;2.42;;;1.00;;
29002;SDS011;16102;57.138;-2.118;2023-03-30T16:43:13;4.28;;;1.38;;
29002;SDS011;16102;57.138;-2.118;2023-03-30T16:45:40;3.50;;;1.42;;
29002;SDS011;16102;57.138;-2.118;2023-03-30T16:48:09;3.35;;;1.45;;
29002;SDS011;16102;57.138;-2.118;2023-03-30T16:50:42;3.53;;;1.02;;
29002;SDS011;16102;57.138;-2.118;2023-03-30T16:53:15;2.35;;;1.25;;
29002;SDS011;16102;57.138;-2.118;2023-03-30T16:55:42;2.80;;;1.30;;
29002;SDS011;16102;57.138;-2.118;2023-03-30T16:58:10;5.35;;;1.20;;
29002;SDS011;16102;57.138;-2.118;2023-03-30T17:00:41;3.92;;;1.63;;
29002;SDS011;16102;57.138;-2.118;2023-03-30T17:03:13;3.63;;;1.00;;
29002;SDS011;16102;57.138;-2.118;2023-03-30T17:05:43;2.60;;;1.17;;
29002;SDS011;16102;57.138;-2.118;2023-03-30T17:08:18;5.15;;;1.35;;
29002;SDS011;16102;57.138;-2.118;2023-03-30T17:10:47;3.67;;;1.30;;
29002;SDS011;16102;57.138;-2.118;2023-03-30T17:13:17;3.15;;;1.25;;
29002;SDS011;16102;57.138;-2.118;2023-03-30T17:15:44;1.98;;;0.80;;
29002;SDS011;16102;57.138;-2.118;2023-03-30T17:18:12;1.55;;;0.75;;
29002;SDS011;16102;57.138;-2.118;2023-03-30T17:20:54;3.88;;;1.30;;
29002;SDS011;16102;57.138;-2.118;2023-03-30T17:23:29;1.67;;;0.90;;
29002;SDS011;16102;57.138;-2.118;2023-03-30T17:25:58;3.70;;;0.90;;
29002;SDS011;16102;57.138;-2.118;2023-03-30T17:30:59;5.38;;;1.45;;
29002;SDS011;16102;57.138;-2.118;2023-03-30T17:33:28;3.60;;;1.30;;
29002;SDS011;16102;57.138;-2.118;2023-03-30T17:35:57;3.17;;;0.93;;